Time;durP1;ratioP1;P1;durP2;ratioP2;P2;SDS_P1;SDS_P2;PMS_P1;PMS_P2;Temp;Humidity;BMP_temperature;BMP_pressure;BME280_temperature;BME280_humidity;BME280_pressure;Samples;Min_cycle;Max_cycle;Signal;HPM_P1;HPM_P2
2022/07/16 00:02:02;;;;;;;;;1.00;1.00;;;;;23.61;48.23;98768.59;4911701;28;102266;-59
2022/07/16 00:04:29;;;;;;;;;2.00;1.00;;;;;23.64;48.04;98778.28;4918666;28;102373;-59
2022/07/16 00:06:56;;;;;;;;;2.33;1.33;;;;;23.62;48.05;98774.97;4898836;28;102408;-59
2022/07/16 00:09:23;;;;;;;;;0.67;0.67;;;;;23.61;48.00;98771.38;4880338;28;104240;-59
2022/07/16 00:11:51;;;;;;;;;1.00;0.67;;;;;23.61;48.20;98771.38;4918870;28;102522;-60
2022/07/16 00:14:19;;;;;;;;;2.00;1.00;;;;;23.61;48.07;98771.38;4916578;28;102159;-60
2022/07/16 00:16:46;;;;;;;;;2.00;1.67;;;;;23.60;48.03;98769.72;4928601;28;102208;-60
2022/07/16 00:19:18;;;;;;;;;1.67;1.00;;;;;23.59;48.10;98773.59;4915285;28;103263;-59
2022/07/16 00:21:47;;;;;;;;;1.00;1.00;;;;;23.59;48.06;98773.59;4913481;28;102498;-59
2022/07/16 00:24:14;;;;;;;;;1.00;1.00;;;;;23.59;48.08;98768.06;4914845;28;102437;-59
2022/07/16 00:26:42;;;;;;;;;1.33;1.33;;;;;23.59;47.99;98765.31;4918465;28;102301;-59
2022/07/16 00:29:10;;;;;;;;;2.00;2.00;;;;;23.57;47.93;98764.75;4915957;28;104053;-59
2022/07/16 00:31:37;;;;;;;;;1.33;1.33;;;;;23.56;48.07;98763.09;4916368;28;102075;-60
2022/07/16 00:34:05;;;;;;;;;1.00;0.00;;;;;23.54;48.03;98765.34;4913092;28;105011;-59
2022/07/16 00:36:36;;;;;;;;;1.00;0.00;;;;;23.53;47.86;98758.16;4919476;28;102359;-59
2022/07/16 00:39:04;;;;;;;;;1.00;1.00;;;;;23.53;47.94;98758.97;4916607;28;104153;-60
2022/07/16 00:41:31;;;;;;;;;1.33;1.00;;;;;23.52;47.94;98750.97;4910537;28;102563;-60
2022/07/16 00:44:06;;;;;;;;;2.00;1.33;;;;;23.52;48.01;98759.25;4914059;28;102193;-59
2022/07/16 00:46:33;;;;;;;;;1.00;1.00;;;;;23.52;48.05;98750.97;4903224;28;103117;-60
2022/07/16 00:49:00;;;;;;;;;1.00;1.00;;;;;23.51;47.97;98752.91;4911736;28;104107;-60
2022/07/16 00:51:28;;;;;;;;;1.00;1.00;;;;;23.51;48.08;98755.66;4911145;28;102147;-59
2022/07/16 00:53:58;;;;;;;;;1.00;1.00;;;;;23.51;48.05;98754.84;4907554;28;104753;-60
2022/07/16 00:56:25;;;;;;;;;1.00;1.00;;;;;23.50;47.94;98753.19;4908549;28;102137;-60
2022/07/16 00:58:53;;;;;;;;;2.00;2.00;;;;;23.50;48.00;98753.19;4921586;28;104116;-59
2022/07/16 01:01:20;;;;;;;;;1.00;1.00;;;;;23.49;47.98;98751.53;4907842;28;102102;-60
2022/07/16 01:03:47;;;;;;;;;2.00;1.00;;;;;23.48;48.05;98750.72;4927215;28;103112;-60
2022/07/16 01:06:14;;;;;;;;;2.00;2.00;;;;;23.47;47.92;98756.50;4896050;28;102257;-59
2022/07/16 01:08:43;;;;;;;;;1.00;1.00;;;;;23.46;48.08;98752.13;4907045;28;105086;-59
2022/07/16 01:11:15;;;;;;;;;1.33;1.33;;;;;23.45;47.89;98754.03;4890177;28;105114;-59
2022/07/16 01:13:43;;;;;;;;;2.00;2.00;;;;;23.45;47.87;98747.69;4890046;28;102492;-60
2022/07/16 01:16:11;;;;;;;;;1.33;1.33;;;;;23.45;47.95;98747.69;4908333;28;104126;-59
2022/07/16 01:18:39;;;;;;;;;1.00;1.00;;;;;23.45;47.95;98740.25;4911205;28;103011;-60
2022/07/16 01:21:09;;;;;;;;;2.00;1.33;;;;;23.44;48.08;98743.28;4909838;28;102375;-60
2022/07/16 01:23:37;;;;;;;;;2.00;2.00;;;;;23.43;47.83;98747.09;4914867;28;102360;-60
2022/07/16 01:26:04;;;;;;;;;1.00;1.00;;;;;23.43;47.87;98736.06;4916512;28;102214;-60
2022/07/16 01:28:31;;;;;;;;;1.67;1.00;;;;;23.42;47.97;98745.44;4912866;28;104035;-60
2022/07/16 01:30:58;;;;;;;;;1.00;1.00;;;;;23.43;47.89;98738.81;4912946;28;102309;-60
2022/07/16 01:33:33;;;;;;;;;1.00;1.00;;;;;23.41;47.90;98735.53;4911102;28;105200;-59
2022/07/16 01:36:04;;;;;;;;;2.00;2.00;;;;;23.41;48.01;98732.78;4914890;28;102538;-59
2022/07/16 01:38:31;;;;;;;;;2.00;1.00;;;;;23.37;47.99;98729.72;4930475;28;109099;-60
2022/07/16 01:40:58;;;;;;;;;1.00;1.00;;;;;23.37;47.84;98732.50;4915414;28;102336;-59
2022/07/16 01:43:27;;;;;;;;;2.00;2.00;;;;;23.38;47.93;98733.31;4915162;28;107970;-59
2022/07/16 01:45:54;;;;;;;;;1.33;1.33;;;;;23.36;47.82;98732.78;4903370;28;103287;-59
2022/07/16 01:48:21;;;;;;;;;1.00;1.00;;;;;23.36;47.91;98730.03;4913226;28;104081;-59
2022/07/16 01:50:49;;;;;;;;;1.00;1.00;;;;;23.35;47.91;98731.97;4911827;28;102456;-60
2022/07/16 01:53:16;;;;;;;;;1.00;0.33;;;;;23.34;47.90;98738.56;4911705;28;104351;-59
2022/07/16 01:55:43;;;;;;;;;2.00;2.00;;;;;23.34;47.94;98735.00;4911427;28;102501;-60
2022/07/16 01:58:11;;;;;;;;;1.00;1.00;;;;;23.35;47.93;98731.13;4938246;28;104103;-59
2022/07/16 02:00:39;;;;;;;;;1.67;1.67;;;;;23.34;47.99;98724.78;4915450;28;102094;-59
2022/07/16 02:03:06;;;;;;;;;2.00;2.00;;;;;23.37;47.64;98729.72;4923689;28;102291;-60
2022/07/16 02:05:34;;;;;;;;;1.00;1.00;;;;;23.36;47.63;98736.38;4914753;28;102150;-60
2022/07/16 02:08:02;;;;;;;;;1.00;1.00;;;;;23.34;47.68;98723.94;4915300;28;104163;-60
2022/07/16 02:10:30;;;;;;;;;2.00;2.00;;;;;23.32;47.92;98726.19;4912634;28;101980;-60
2022/07/16 02:12:57;;;;;;;;;2.00;2.00;;;;;23.29;47.78;98718.44;4913971;28;102778;-59
2022/07/16 02:15:24;;;;;;;;;1.00;1.00;;;;;23.29;47.75;98716.50;4917363;28;102904;-60
2022/07/16 02:17:51;;;;;;;;;1.00;1.00;;;;;23.25;47.88;98706.31;4916384;28;104096;-59
2022/07/16 02:20:18;;;;;;;;;1.67;1.67;;;;;23.26;47.89;98705.22;4937806;28;102295;-59
2022/07/16 02:22:45;;;;;;;;;1.00;1.00;;;;;23.26;47.99;98705.22;4915419;28;102331;-60
2022/07/16 02:25:12;;;;;;;;;2.00;2.00;;;;;23.26;47.84;98707.97;4915257;28;102353;-60
2022/07/16 02:30:25;;;;;;;;;2.00;1.00;;;;;23.26;47.83;98703.28;4915091;28;102239;-60
2022/07/16 02:32:52;;;;;;;;;2.00;2.00;;;;;23.25;47.76;98701.63;4914144;28;102314;-59
2022/07/16 02:35:20;;;;;;;;;1.00;1.00;;;;;23.25;47.73;98698.88;4918554;28;102197;-59
2022/07/16 02:37:47;;;;;;;;;1.00;1.00;;;;;23.24;47.71;98704.66;4913549;28;104025;-60
2022/07/16 02:40:14;;;;;;;;;2.00;1.67;;;;;23.23;47.74;98712.13;4914582;28;102760;-59
2022/07/16 02:42:41;;;;;;;;;2.00;2.00;;;;;23.22;47.70;98713.25;4915835;28;102016;-60
2022/07/16 02:45:09;;;;;;;;;2.00;2.00;;;;;23.22;47.72;98709.66;4917468;28;102377;-60
2022/07/16 02:47:36;;;;;;;;;1.00;1.00;;;;;23.21;47.84;98711.56;4913950;28;106083;-59
2022/07/16 02:50:04;;;;;;;;;1.00;1.00;;;;;23.18;47.72;98711.31;4916598;28;102231;-59
2022/07/16 02:52:31;;;;;;;;;2.00;2.00;;;;;23.16;47.86;98716.28;4910934;28;102362;-60
2022/07/16 02:54:58;;;;;;;;;2.00;2.00;;;;;23.16;47.79;98716.28;4917086;28;102664;-59
2022/07/16 02:57:25;;;;;;;;;1.00;1.00;;;;;23.17;47.81;98704.97;4913291;28;104064;-59
2022/07/16 02:59:52;;;;;;;;;2.00;2.00;;;;;23.19;47.63;98707.47;4913225;28;102522;-59
2022/07/16 03:02:20;;;;;;;;;2.00;2.00;;;;;23.19;47.66;98710.22;4914530;28;102198;-60
2022/07/16 03:04:47;;;;;;;;;1.00;1.00;;;;;23.18;47.68;98711.31;4928592;28;102264;-60
2022/07/16 03:07:14;;;;;;;;;1.00;1.00;;;;;23.20;47.69;98714.59;4911068;28;104247;-60
2022/07/16 03:09:41;;;;;;;;;3.00;1.00;;;;;23.20;47.56;98711.84;4917464;28;104886;-60
2022/07/16 03:12:08;;;;;;;;;1.00;1.00;;;;;23.19;47.74;98713.78;4916860;28;102172;-60
2022/07/16 03:14:35;;;;;;;;;2.00;1.67;;;;;23.19;47.65;98719.28;4910174;28;102579;-59
2022/07/16 03:17:07;;;;;;;;;3.00;3.00;;;;;23.15;47.72;98712.69;4916796;28;104101;-60
2022/07/16 03:19:34;;;;;;;;;1.67;1.67;;;;;23.14;47.70;98716.56;4913391;28;102454;-59
2022/07/16 03:22:01;;;;;;;;;1.00;1.00;;;;;23.11;47.68;98722.63;4915659;28;103426;-60
2022/07/16 03:24:28;;;;;;;;;3.00;3.00;;;;;23.12;47.61;98725.13;4913749;28;102234;-60
2022/07/16 03:26:56;;;;;;;;;1.00;1.00;;;;;23.12;47.57;98718.78;4912962;28;104179;-60
2022/07/16 03:29:28;;;;;;;;;2.00;2.00;;;;;23.12;47.69;98719.59;4919174;28;102002;-59
2022/07/16 03:31:55;;;;;;;;;1.00;1.00;;;;;23.13;47.69;98718.50;4917961;28;102151;-59
2022/07/16 03:34:22;;;;;;;;;2.00;2.00;;;;;23.14;47.53;98720.13;4920435;28;102267;-59
2022/07/16 03:36:49;;;;;;;;;1.33;1.33;;;;;23.14;47.74;98722.88;4912672;28;104054;-60
2022/07/16 03:39:16;;;;;;;;;2.00;2.00;;;;;23.13;47.48;98726.78;4919643;28;102922;-59
2022/07/16 03:41:43;;;;;;;;;2.00;2.00;;;;;23.12;47.54;98725.13;4916389;28;102147;-59
2022/07/16 03:44:12;;;;;;;;;1.00;1.00;;;;;23.10;47.55;98729.25;4910646;28;102233;-59
2022/07/16 03:46:39;;;;;;;;;3.00;2.00;;;;;23.08;47.49;98729.53;4915386;28;104269;-59
2022/07/16 03:49:06;;;;;;;;;1.00;1.00;;;;;23.08;47.66;98735.06;4919234;28;102264;-59
2022/07/16 03:51:34;;;;;;;;;1.00;1.00;;;;;23.05;47.55;98724.59;4914151;28;102022;-59
2022/07/16 03:54:04;;;;;;;;;1.33;1.33;;;;;23.05;47.76;98730.13;4920979;28;102200;-60
2022/07/16 03:56:32;;;;;;;;;2.33;2.00;;;;;23.03;47.50;98724.03;4916801;28;108639;-59
2022/07/16 03:58:59;;;;;;;;;2.00;2.00;;;;;23.03;47.46;98720.44;4921684;28;102082;-59
2022/07/16 04:01:26;;;;;;;;;1.67;1.67;;;;;23.02;47.52;98714.09;4914823;28;102535;-60
2022/07/16 04:03:53;;;;;;;;;3.00;3.00;;;;;23.06;47.72;98722.63;4917506;28;102605;-60
2022/07/16 04:06:20;;;;;;;;;2.00;2.00;;;;;23.07;47.46;98721.53;4912168;28;104051;-59
2022/07/16 04:08:48;;;;;;;;;3.00;3.00;;;;;23.07;47.42;98721.53;4918222;28;102302;-59
2022/07/16 04:11:15;;;;;;;;;2.33;2.00;;;;;23.06;47.48;98717.94;4910512;28;102350;-60
2022/07/16 04:13:42;;;;;;;;;2.67;2.00;;;;;23.07;47.24;98719.59;4912964;28;102425;-60
2022/07/16 04:16:09;;;;;;;;;1.67;1.67;;;;;23.07;47.25;98716.03;4914757;28;104072;-59
2022/07/16 04:18:37;;;;;;;;;2.00;2.00;;;;;23.08;47.46;98718.50;4914032;28;102579;-60
2022/07/16 04:21:05;;;;;;;;;2.00;2.00;;;;;23.06;47.42;98719.88;4917873;28;102112;-60
2022/07/16 04:23:32;;;;;;;;;2.00;2.00;;;;;23.04;47.42;98711.91;4919619;28;102592;-59
2022/07/16 04:25:59;;;;;;;;;2.00;2.00;;;;;23.02;47.52;98718.78;4914857;28;109012;-60
2022/07/16 04:28:26;;;;;;;;;2.00;2.00;;;;;23.00;47.54;98716.31;4914306;28;102360;-59
2022/07/16 04:30:53;;;;;;;;;1.33;1.00;;;;;22.98;47.52;98713.00;4914001;28;102405;-60
2022/07/16 04:33:20;;;;;;;;;2.00;2.00;;;;;22.99;47.63;98717.44;4909876;28;102369;-59
2022/07/16 04:35:48;;;;;;;;;2.00;2.00;;;;;23.00;47.42;98721.84;4911578;28;104010;-60
2022/07/16 04:38:16;;;;;;;;;3.00;2.00;;;;;23.02;47.30;98725.13;4916555;28;102271;-60
2022/07/16 04:40:43;;;;;;;;;1.00;1.00;;;;;23.03;47.50;98728.72;4927458;28;102140;-60
2022/07/16 04:43:10;;;;;;;;;2.67;2.67;;;;;23.02;47.46;98725.13;4916266;28;102367;-60
2022/07/16 04:45:37;;;;;;;;;2.00;1.00;;;;;23.03;47.32;98731.47;4918422;28;104122;-59
2022/07/16 04:48:05;;;;;;;;;3.00;2.67;;;;;23.02;47.40;98736.16;4918108;28;102266;-60
2022/07/16 04:50:33;;;;;;;;;2.67;2.67;;;;;23.02;47.41;98727.88;4917218;28;102227;-60
2022/07/16 04:53:00;;;;;;;;;3.67;2.00;;;;;23.02;47.40;98730.66;4918388;28;102165;-59
2022/07/16 04:55:28;;;;;;;;;1.33;1.00;;;;;23.00;47.34;98735.63;4914017;28;108966;-60
2022/07/16 04:57:55;;;;;;;;;1.67;1.00;;;;;23.02;47.30;98724.31;4919141;28;102396;-59
2022/07/16 05:00:25;;;;;;;;;2.00;2.00;;;;;23.00;47.34;98718.25;4911819;28;102433;-60
2022/07/16 05:02:59;;;;;;;;;3.00;3.00;;;;;22.99;47.25;98720.19;4921916;28;102435;-59
2022/07/16 05:05:32;;;;;;;;;2.00;2.00;;;;;22.98;47.30;98721.28;4914289;28;104178;-59
2022/07/16 05:08:00;;;;;;;;;3.00;2.00;;;;;22.99;47.27;98722.94;4917719;28;103284;-59
2022/07/16 05:10:28;;;;;;;;;3.33;2.33;;;;;23.01;47.35;98728.19;4915476;28;105102;-60
2022/07/16 05:12:56;;;;;;;;;3.00;1.33;;;;;23.00;47.36;98724.59;4913102;28;103010;-59
2022/07/16 05:15:23;;;;;;;;;3.33;2.00;;;;;23.00;47.29;98721.00;4916215;28;104175;-59
2022/07/16 05:17:50;;;;;;;;;3.00;2.00;;;;;23.01;47.20;98715.19;4914915;28;102383;-59
2022/07/16 05:20:18;;;;;;;;;4.00;2.00;;;;;23.02;47.05;98718.78;4915996;28;102140;-60
2022/07/16 05:22:45;;;;;;;;;1.00;1.00;;;;;23.03;47.11;98720.44;4914248;28;102375;-59
2022/07/16 05:25:12;;;;;;;;;2.00;1.67;;;;;23.02;47.05;98705.81;4912007;28;104071;-59
2022/07/16 05:27:39;;;;;;;;;1.00;1.00;;;;;23.02;47.27;98710.50;4912259;28;102366;-59
2022/07/16 05:30:07;;;;;;;;;4.00;4.00;;;;;23.00;47.60;98710.81;4913767;28;102360;-60
2022/07/16 05:32:42;;;;;;;;;2.00;2.00;;;;;23.00;47.18;98716.31;4910595;28;102541;-59
2022/07/16 05:35:11;;;;;;;;;1.00;1.00;;;;;23.03;47.37;98717.69;4910041;28;104165;-60
2022/07/16 05:37:39;;;;;;;;;1.00;0.00;;;;;23.03;47.06;98715.75;4935924;28;102227;-60
2022/07/16 05:40:06;;;;;;;;;3.00;3.00;;;;;23.02;47.00;98711.34;4912905;28;102421;-59
2022/07/16 05:42:33;;;;;;;;;3.00;2.33;;;;;23.03;47.07;98715.75;4914586;28;102640;-60
2022/07/16 05:45:01;;;;;;;;;3.00;3.00;;;;;23.03;46.96;98714.94;4914037;28;104006;-60
2022/07/16 05:47:28;;;;;;;;;2.00;2.00;;;;;23.04;46.91;98709.16;4914823;28;102186;-59
2022/07/16 05:49:56;;;;;;;;;1.00;1.00;;;;;23.07;47.04;98713.25;4913590;28;102097;-60
2022/07/16 05:52:23;;;;;;;;;2.33;2.33;;;;;23.09;47.18;98714.66;4915336;28;102436;-59
2022/07/16 05:54:50;;;;;;;;;2.00;2.00;;;;;23.10;46.80;98709.94;4915748;28;104067;-59
2022/07/16 05:57:17;;;;;;;;;2.33;2.33;;;;;23.12;46.88;98707.75;4911293;28;102377;-60
2022/07/16 05:59:44;;;;;;;;;4.00;2.67;;;;;23.11;46.88;98706.91;4909766;28;102441;-59
2022/07/16 06:02:11;;;;;;;;;2.00;2.00;;;;;23.12;46.88;98703.06;4914627;28;102343;-59
2022/07/16 06:04:38;;;;;;;;;2.00;1.00;;;;;23.13;46.83;98701.94;4914589;28;104227;-60
2022/07/16 06:07:05;;;;;;;;;2.00;2.00;;;;;23.12;46.93;98710.50;4913339;28;103114;-59
2022/07/16 06:09:32;;;;;;;;;1.67;1.00;;;;;23.12;46.83;98702.22;4919074;28;102432;-60
2022/07/16 06:11:59;;;;;;;;;2.00;2.00;;;;;23.14;46.76;98703.56;4916765;28;102510;-59
2022/07/16 06:14:26;;;;;;;;;2.67;2.00;;;;;23.16;46.78;98710.75;4915199;28;104063;-59
2022/07/16 06:16:53;;;;;;;;;2.00;2.00;;;;;23.17;46.89;98715.19;4915718;28;102353;-59
2022/07/16 06:19:20;;;;;;;;;2.00;2.00;;;;;23.16;46.83;98719.03;4913032;28;102338;-59
2022/07/16 06:21:47;;;;;;;;;1.00;1.00;;;;;23.16;46.92;98719.88;4918306;28;102095;-60
2022/07/16 06:24:15;;;;;;;;;2.00;1.00;;;;;23.16;46.93;98719.88;4916369;28;104071;-59
2022/07/16 06:26:46;;;;;;;;;2.00;2.00;;;;;23.19;46.65;98724.00;4910392;28;102043;-60
2022/07/16 06:29:14;;;;;;;;;2.67;2.67;;;;;23.18;46.89;98727.88;4914607;28;102218;-60
2022/07/16 06:31:42;;;;;;;;;2.00;2.00;;;;;23.18;46.84;98722.34;4918577;28;102100;-60
2022/07/16 06:34:10;;;;;;;;;2.00;2.00;;;;;23.18;46.80;98711.31;4913769;28;104136;-60
2022/07/16 06:36:37;;;;;;;;;2.33;2.33;;;;;23.19;46.79;98712.97;4911864;28;102489;-59
2022/07/16 06:39:04;;;;;;;;;3.00;3.00;;;;;23.20;46.89;98703.56;4914452;28;102329;-60
2022/07/16 06:41:31;;;;;;;;;1.00;1.00;;;;;23.22;46.87;98704.13;4916958;28;102309;-60
2022/07/16 06:43:58;;;;;;;;;2.00;2.00;;;;;23.21;46.62;98708.81;4911924;28;109752;-60
2022/07/16 06:46:25;;;;;;;;;2.00;2.00;;;;;23.25;46.71;98703.56;4907464;28;102460;-60
2022/07/16 06:48:53;;;;;;;;;1.67;1.67;;;;;23.30;46.61;98707.13;4910591;28;102343;-59
2022/07/16 06:51:20;;;;;;;;;1.33;1.00;;;;;23.32;46.68;98704.09;4917109;28;102176;-59
2022/07/16 06:53:47;;;;;;;;;1.00;1.00;;;;;23.34;46.60;98699.13;4911774;28;104113;-59
2022/07/16 06:56:14;;;;;;;;;2.00;1.00;;;;;23.38;46.69;98705.72;4910649;28;102481;-60
2022/07/16 06:58:42;;;;;;;;;0.00;0.00;;;;;23.37;46.56;98698.56;4915721;28;102524;-59
2022/07/16 07:01:09;;;;;;;;;1.00;1.00;;;;;23.40;46.55;98692.47;4917640;28;102289;-59
2022/07/16 07:03:39;;;;;;;;;3.33;2.00;;;;;23.40;46.43;98703.53;4914243;28;104011;-59
2022/07/16 07:06:07;;;;;;;;;2.00;2.00;;;;;23.40;46.39;98693.31;4919720;28;102504;-59
2022/07/16 07:08:34;;;;;;;;;3.00;2.00;;;;;23.41;46.44;98688.63;4917268;28;102268;-60
2022/07/16 07:11:01;;;;;;;;;1.00;1.00;;;;;23.40;46.48;98689.72;4922787;28;102400;-59
2022/07/16 07:13:30;;;;;;;;;1.67;1.67;;;;;23.41;46.63;98697.72;4917373;28;109506;-59
2022/07/16 07:15:58;;;;;;;;;1.67;1.00;;;;;23.42;46.46;98695.75;4915562;28;102409;-59
2022/07/16 07:18:25;;;;;;;;;2.00;2.00;;;;;23.41;46.38;98692.22;4914381;28;102660;-59
2022/07/16 07:20:55;;;;;;;;;1.67;1.00;;;;;23.42;46.55;98691.06;4920512;28;102387;-59
2022/07/16 07:23:22;;;;;;;;;2.00;2.00;;;;;23.42;46.33;98691.06;4916588;28;104307;-60
2022/07/16 07:25:49;;;;;;;;;2.00;2.00;;;;;23.43;46.35;98686.38;4918631;28;102461;-59
2022/07/16 07:28:16;;;;;;;;;1.00;1.00;;;;;23.44;46.37;98688.06;4919292;28;102315;-59
2022/07/16 07:30:44;;;;;;;;;2.00;2.00;;;;;23.44;46.38;98688.06;4921151;28;102587;-60
2022/07/16 07:33:11;;;;;;;;;2.00;1.67;;;;;23.44;46.53;98683.38;4914734;28;103878;-59
2022/07/16 07:35:38;;;;;;;;;1.00;1.00;;;;;23.44;46.40;98677.03;4919060;28;102288;-59
2022/07/16 07:38:05;;;;;;;;;2.00;2.00;;;;;23.45;46.54;98679.53;4914814;28;102221;-59
2022/07/16 07:40:32;;;;;;;;;2.00;2.00;;;;;23.45;46.35;98678.69;4915819;28;102382;-60
2022/07/16 07:42:59;;;;;;;;;2.00;1.67;;;;;23.45;46.43;98667.66;4917062;28;108920;-60
2022/07/16 07:45:27;;;;;;;;;2.00;2.00;;;;;23.45;46.39;98670.41;4918027;28;102500;-59
2022/07/16 07:47:54;;;;;;;;;1.67;1.67;;;;;23.45;46.42;98673.19;4910470;28;102501;-57
2022/07/16 07:50:21;;;;;;;;;2.67;1.67;;;;;23.44;46.43;98668.75;4913233;28;102486;-59
2022/07/16 07:52:48;;;;;;;;;2.00;2.00;;;;;23.44;46.48;98677.03;4918409;28;104245;-59
2022/07/16 07:55:15;;;;;;;;;3.00;2.67;;;;;23.44;46.38;98666.81;4914733;28;102526;-59
2022/07/16 07:57:48;;;;;;;;;2.00;1.00;;;;;23.45;46.20;98674.00;4915314;28;104696;-60
2022/07/16 08:00:15;;;;;;;;;1.33;1.33;;;;;23.45;46.41;98673.19;4916815;28;102546;-59
2022/07/16 08:02:43;;;;;;;;;2.00;2.00;;;;;23.45;46.44;98674.00;4915149;28;104057;-59
2022/07/16 08:05:11;;;;;;;;;2.00;1.00;;;;;23.45;46.41;98667.66;4916448;28;102317;-59
2022/07/16 08:07:38;;;;;;;;;2.00;2.00;;;;;23.46;46.36;98664.59;4917404;28;102473;-59
2022/07/16 08:10:05;;;;;;;;;1.00;1.00;;;;;23.46;46.52;98663.78;4914666;28;102320;-60
2022/07/16 08:12:32;;;;;;;;;1.00;1.00;;;;;23.47;46.40;98662.66;4917612;28;104117;-59
2022/07/16 08:14:59;;;;;;;;;2.00;1.67;;;;;23.46;46.55;98655.50;4920631;28;102470;-59
2022/07/16 08:17:27;;;;;;;;;2.00;2.00;;;;;23.47;46.54;98659.91;4913677;28;102216;-59
2022/07/16 08:19:54;;;;;;;;;2.00;2.00;;;;;23.46;46.42;98658.28;4916051;28;103126;-60
2022/07/16 08:22:21;;;;;;;;;2.67;1.67;;;;;23.46;46.46;98655.50;4912137;28;104132;-59
2022/07/16 08:27:34;;;;;;;;;2.00;1.00;;;;;23.47;46.37;98655.22;4913145;28;102328;-60
2022/07/16 08:30:01;;;;;;;;;1.00;1.00;;;;;23.48;46.34;98650.53;4917619;28;102661;-59
2022/07/16 08:32:28;;;;;;;;;1.00;1.00;;;;;23.48;46.53;98645.00;4915338;28;111881;-59
2022/07/16 08:34:55;;;;;;;;;1.00;1.00;;;;;23.47;46.35;98651.63;4919671;28;102137;-59
2022/07/16 08:37:35;;;;;;;;;2.00;1.00;;;;;23.49;46.33;98652.19;4916661;28;102576;-59
2022/07/16 08:40:08;;;;;;;;;2.00;1.33;;;;;23.50;46.43;98648.31;4914649;28;102359;-59
2022/07/16 08:42:35;;;;;;;;;1.00;1.00;;;;;23.49;46.58;98650.25;4913160;28;109042;-60
2022/07/16 08:45:03;;;;;;;;;1.00;1.00;;;;;23.49;46.35;98649.41;4916253;28;102404;-59
2022/07/16 08:47:31;;;;;;;;;2.00;1.00;;;;;23.50;46.46;98643.63;4917533;28;102682;-60
2022/07/16 08:50:00;;;;;;;;;1.00;1.00;;;;;23.51;46.29;98649.94;4915898;28;102107;-60
2022/07/16 08:52:28;;;;;;;;;1.00;1.00;;;;;23.51;46.30;98636.13;4916091;28;104068;-60
2022/07/16 08:54:56;;;;;;;;;2.00;1.00;;;;;23.51;46.37;98630.63;4913873;28;102184;-59
2022/07/16 08:57:23;;;;;;;;;2.00;1.00;;;;;23.51;46.21;98641.66;4911482;28;102141;-59
2022/07/16 08:59:51;;;;;;;;;1.00;1.00;;;;;23.50;46.32;98638.09;4917888;28;102410;-59
2022/07/16 09:02:18;;;;;;;;;1.00;1.00;;;;;23.51;46.32;98638.91;4927972;28;104066;-60
2022/07/16 09:04:46;;;;;;;;;1.00;1.00;;;;;23.51;46.26;98627.84;4918957;28;102184;-59
2022/07/16 09:07:17;;;;;;;;;0.67;0.67;;;;;23.50;46.38;98637.28;4918034;28;102346;-60
2022/07/16 09:09:44;;;;;;;;;1.00;1.00;;;;;23.51;46.29;98630.63;4915500;28;102147;-59
2022/07/16 09:12:12;;;;;;;;;1.00;1.00;;;;;23.51;46.37;98633.38;4910286;28;104187;-59
2022/07/16 09:14:40;;;;;;;;;0.00;0.00;;;;;23.52;46.47;98632.28;4918124;28;102592;-60
2022/07/16 09:17:07;;;;;;;;;2.00;1.33;;;;;23.53;46.52;98642.22;4916081;28;102172;-59
2022/07/16 09:19:34;;;;;;;;;1.00;1.00;;;;;23.52;46.37;98646.06;4915413;28;102264;-60
2022/07/16 09:22:08;;;;;;;;;1.00;0.33;;;;;23.52;46.43;98632.28;4912007;28;104137;-59
2022/07/16 09:24:47;;;;;;;;;1.33;1.33;;;;;23.53;46.28;98625.66;4915724;28;102717;-60
2022/07/16 09:27:22;;;;;;;;;1.00;1.00;;;;;23.52;46.47;98629.53;4915302;28;102165;-59
2022/07/16 09:29:50;;;;;;;;;1.00;1.00;;;;;23.54;46.32;98624.56;4916744;28;102113;-59
2022/07/16 09:32:34;;;;;;;;;0.00;0.00;;;;;23.53;46.23;98618.19;4917245;28;104185;-59
2022/07/16 09:35:05;;;;;;;;;1.00;1.00;;;;;23.54;46.37;98621.78;4917452;28;102204;-60
2022/07/16 09:37:52;;;;;;;;;1.00;1.00;;;;;23.54;46.16;98621.78;4914514;28;102153;-60
2022/07/16 09:40:36;;;;;;;;;2.00;1.00;;;;;23.54;46.36;98621.78;4912051;28;102167;-60
2022/07/16 09:43:13;;;;;;;;;1.00;1.00;;;;;23.55;46.31;98626.19;4916049;28;108957;-60
2022/07/16 09:45:41;;;;;;;;;1.00;1.00;;;;;23.53;46.47;98620.97;4918861;28;102352;-60
2022/07/16 09:48:24;;;;;;;;;2.00;2.00;;;;;23.55;46.21;98628.94;4919069;28;102156;-59
2022/07/16 09:50:52;;;;;;;;;1.00;1.00;;;;;23.54;46.41;98628.13;4919391;28;102205;-59
2022/07/16 09:53:24;;;;;;;;;2.00;1.00;;;;;23.54;46.40;98627.31;4915038;28;104195;-59
2022/07/16 09:55:54;;;;;;;;;2.00;1.00;;;;;23.55;46.45;98626.19;4915114;28;102323;-59
2022/07/16 09:58:21;;;;;;;;;1.00;1.00;;;;;23.55;46.46;98615.13;4913309;28;102341;-60
2022/07/16 10:00:48;;;;;;;;;0.67;0.67;;;;;23.55;46.39;98615.97;4919817;28;102173;-59
2022/07/16 10:03:15;;;;;;;;;1.00;1.00;;;;;23.56;46.38;98611.28;4912332;28;104058;-59
2022/07/16 10:05:43;;;;;;;;;1.00;1.00;;;;;23.58;46.43;98616.53;4909453;28;102029;-60
2022/07/16 10:08:10;;;;;;;;;0.00;0.00;;;;;23.57;46.52;98621.22;4915175;28;102904;-59
2022/07/16 10:10:37;;;;;;;;;1.00;1.00;;;;;23.56;46.27;98609.34;4912400;28;102643;-59
2022/07/16 10:13:04;;;;;;;;;1.00;1.00;;;;;23.58;46.45;98617.34;4916034;28;104075;-60
2022/07/16 10:15:31;;;;;;;;;1.00;1.00;;;;;23.58;46.29;98620.09;4918405;28;102320;-59
2022/07/16 10:17:58;;;;;;;;;1.00;1.00;;;;;23.57;46.27;98610.16;4916382;28;102448;-59
2022/07/16 10:20:25;;;;;;;;;1.00;1.00;;;;;23.58;46.61;98603.53;4917759;28;102387;-59
2022/07/16 10:22:52;;;;;;;;;1.00;1.00;;;;;23.59;46.24;98607.13;4915052;28;103985;-59
2022/07/16 10:25:26;;;;;;;;;2.00;2.00;;;;;23.60;46.24;98598.53;4913777;28;102440;-60
2022/07/16 10:27:53;;;;;;;;;1.00;1.00;;;;;23.61;46.30;98610.41;4917286;28;102810;-59
2022/07/16 10:30:29;;;;;;;;;1.00;1.00;;;;;23.60;46.06;98606.81;4933148;28;102610;-59
2022/07/16 10:32:59;;;;;;;;;1.00;1.00;;;;;23.60;46.15;98604.06;4917139;28;104147;-59
2022/07/16 10:35:33;;;;;;;;;0.33;0.33;;;;;23.61;46.35;98593.84;4911362;28;102231;-59
2022/07/16 10:38:30;;;;;;;;;1.00;1.00;;;;;23.60;46.30;98604.06;4915557;28;102363;-60
2022/07/16 10:41:13;;;;;;;;;1.00;1.00;;;;;23.60;46.31;98604.06;4911418;28;103882;-59
2022/07/16 10:43:40;;;;;;;;;0.00;0.00;;;;;23.61;46.17;98582.81;4913765;28;108797;-59
2022/07/16 10:46:08;;;;;;;;;1.00;1.00;;;;;23.61;46.38;98589.16;4914360;28;102287;-59
2022/07/16 10:48:38;;;;;;;;;0.00;0.00;;;;;23.62;46.39;98585.28;4917647;28;102582;-59
2022/07/16 10:51:17;;;;;;;;;0.00;0.00;;;;;23.63;46.23;98577.84;4917185;28;102196;-60
2022/07/16 10:53:56;;;;;;;;;1.00;1.00;;;;;23.64;46.37;98583.06;4913913;28;104310;-60
2022/07/16 10:56:48;;;;;;;;;1.33;1.33;;;;;23.64;46.38;98565.69;4906968;28;102202;-59
2022/07/16 10:59:16;;;;;;;;;1.00;1.00;;;;;23.64;46.45;98576.75;4915783;28;102174;-59
2022/07/16 11:01:46;;;;;;;;;0.67;0.67;;;;;23.64;46.23;98585.81;4914711;28;109614;-60
2022/07/16 11:04:13;;;;;;;;;1.00;0.00;;;;;23.64;46.27;98577.53;4913124;28;104250;-59
2022/07/16 11:06:46;;;;;;;;;0.00;0.00;;;;;23.65;46.33;98573.66;4916461;28;102180;-59
2022/07/16 11:09:13;;;;;;;;;1.00;1.00;;;;;23.65;46.30;98565.38;4917147;28;102203;-59
2022/07/16 11:11:41;;;;;;;;;1.00;1.00;;;;;23.66;46.22;98577.25;4918822;28;102543;-59
2022/07/16 11:14:09;;;;;;;;;2.00;1.00;;;;;23.66;46.15;98564.28;4928054;28;104179;-59
2022/07/16 11:16:39;;;;;;;;;1.00;1.00;;;;;23.66;46.29;98567.03;4937157;28;102901;-59
2022/07/16 11:19:06;;;;;;;;;1.00;1.00;;;;;23.67;46.36;98563.19;4922421;28;102638;-59
2022/07/16 11:21:33;;;;;;;;;0.00;0.00;;;;;23.67;46.26;98560.41;4920007;28;102363;-59
2022/07/16 11:24:01;;;;;;;;;0.00;0.00;;;;;23.68;46.24;98577.81;4917408;28;109154;-60
2022/07/16 11:26:28;;;;;;;;;1.00;1.00;;;;;23.67;46.20;98560.41;4915710;28;102144;-59
2022/07/16 11:29:02;;;;;;;;;0.00;0.00;;;;;23.69;46.27;98568.41;4916572;28;102127;-60
2022/07/16 11:31:34;;;;;;;;;0.33;0.33;;;;;23.68;46.21;98573.13;4913340;28;102608;-60
2022/07/16 11:34:03;;;;;;;;;1.33;1.33;;;;;23.68;46.24;98570.34;4917355;28;109037;-59
2022/07/16 11:36:33;;;;;;;;;1.67;0.00;;;;;23.69;46.27;98562.88;4916549;28;102608;-59